sensor_id;sensor_type;location;lat;lon;timestamp;P1;durP1;ratioP1;P2;durP2;ratioP2
1134;SDS011;556;53.550;10.048;2022-07-06T00:02:11;9.50;;;9.20;;
1134;SDS011;556;53.550;10.048;2022-07-06T00:04:40;10.30;;;10.00;;
1134;SDS011;556;53.550;10.048;2022-07-06T00:07:07;9.80;;;9.20;;
1134;SDS011;556;53.550;10.048;2022-07-06T00:09:34;10.10;;;9.50;;
1134;SDS011;556;53.550;10.048;2022-07-06T00:12:02;10.57;;;9.57;;
1134;SDS011;556;53.550;10.048;2022-07-06T00:14:29;10.50;;;10.10;;
1134;SDS011;556;53.550;10.048;2022-07-06T00:16:56;9.53;;;9.23;;
1134;SDS011;556;53.550;10.048;2022-07-06T00:19:23;9.80;;;9.50;;
1134;SDS011;556;53.550;10.048;2022-07-06T00:21:52;9.50;;;9.20;;
1134;SDS011;556;53.550;10.048;2022-07-06T00:24:19;9.57;;;9.20;;
1134;SDS011;556;53.550;10.048;2022-07-06T00:26:46;9.87;;;9.47;;
1134;SDS011;556;53.550;10.048;2022-07-06T00:29:13;9.50;;;9.20;;
1134;SDS011;556;53.550;10.048;2022-07-06T00:31:40;9.03;;;8.73;;
1134;SDS011;556;53.550;10.048;2022-07-06T00:34:08;9.20;;;8.90;;
1134;SDS011;556;53.550;10.048;2022-07-06T00:36:35;9.63;;;9.13;;
1134;SDS011;556;53.550;10.048;2022-07-06T00:39:03;8.40;;;8.10;;
1134;SDS011;556;53.550;10.048;2022-07-06T00:41:30;9.43;;;9.10;;
1134;SDS011;556;53.550;10.048;2022-07-06T00:43:58;10.13;;;9.10;;
1134;SDS011;556;53.550;10.048;2022-07-06T00:46:26;9.43;;;9.13;;
1134;SDS011;556;53.550;10.048;2022-07-06T00:48:55;8.47;;;8.27;;
1134;SDS011;556;53.550;10.048;2022-07-06T00:51:23;9.90;;;9.40;;
1134;SDS011;556;53.550;10.048;2022-07-06T00:53:54;9.20;;;8.80;;
1134;SDS011;556;53.550;10.048;2022-07-06T00:56:25;8.93;;;8.70;;
1134;SDS011;556;53.550;10.048;2022-07-06T00:58:55;8.40;;;8.10;;
1134;SDS011;556;53.550;10.048;2022-07-06T01:01:22;9.33;;;8.83;;
1134;SDS011;556;53.550;10.048;2022-07-06T01:03:49;8.40;;;7.90;;
1134;SDS011;556;53.550;10.048;2022-07-06T01:06:16;8.80;;;8.40;;
1134;SDS011;556;53.550;10.048;2022-07-06T01:08:43;8.33;;;7.90;;
1134;SDS011;556;53.550;10.048;2022-07-06T01:11:10;9.93;;;8.33;;
1134;SDS011;556;53.550;10.048;2022-07-06T01:13:39;8.97;;;8.50;;
1134;SDS011;556;53.550;10.048;2022-07-06T01:16:08;7.60;;;7.40;;
1134;SDS011;556;53.550;10.048;2022-07-06T01:18:35;7.87;;;7.67;;
1134;SDS011;556;53.550;10.048;2022-07-06T01:21:07;8.13;;;7.63;;
1134;SDS011;556;53.550;10.048;2022-07-06T01:23:38;8.13;;;7.73;;
1134;SDS011;556;53.550;10.048;2022-07-06T01:26:08;8.10;;;7.57;;
1134;SDS011;556;53.550;10.048;2022-07-06T01:28:40;7.83;;;7.63;;
1134;SDS011;556;53.550;10.048;2022-07-06T01:31:13;7.57;;;7.27;;
1134;SDS011;556;53.550;10.048;2022-07-06T01:33:41;7.90;;;7.40;;
1134;SDS011;556;53.550;10.048;2022-07-06T01:36:11;7.87;;;7.53;;
1134;SDS011;556;53.550;10.048;2022-07-06T01:38:45;8.10;;;7.50;;
1134;SDS011;556;53.550;10.048;2022-07-06T01:41:18;7.50;;;7.30;;
1134;SDS011;556;53.550;10.048;2022-07-06T01:43:47;7.70;;;7.20;;
1134;SDS011;556;53.550;10.048;2022-07-06T01:46:15;6.83;;;6.63;;
1134;SDS011;556;53.550;10.048;2022-07-06T01:48:45;6.90;;;6.70;;
1134;SDS011;556;53.550;10.048;2022-07-06T01:51:14;15.23;;;7.10;;
1134;SDS011;556;53.550;10.048;2022-07-06T01:53:43;7.13;;;6.83;;
1134;SDS011;556;53.550;10.048;2022-07-06T01:56:11;6.60;;;6.40;;
1134;SDS011;556;53.550;10.048;2022-07-06T01:58:39;6.20;;;5.90;;
1134;SDS011;556;53.550;10.048;2022-07-06T02:01:08;6.67;;;6.37;;
1134;SDS011;556;53.550;10.048;2022-07-06T02:03:36;6.30;;;6.00;;
1134;SDS011;556;53.550;10.048;2022-07-06T02:06:04;6.10;;;5.90;;
1134;SDS011;556;53.550;10.048;2022-07-06T02:08:34;6.90;;;6.60;;
1134;SDS011;556;53.550;10.048;2022-07-06T02:11:02;6.47;;;6.17;;
1134;SDS011;556;53.550;10.048;2022-07-06T02:13:34;7.40;;;6.03;;
1134;SDS011;556;53.550;10.048;2022-07-06T02:16:04;6.30;;;6.10;;
1134;SDS011;556;53.550;10.048;2022-07-06T02:18:32;6.53;;;6.23;;
1134;SDS011;556;53.550;10.048;2022-07-06T02:20:59;6.57;;;6.37;;
1134;SDS011;556;53.550;10.048;2022-07-06T02:23:26;6.63;;;6.23;;
1134;SDS011;556;53.550;10.048;2022-07-06T02:25:55;7.67;;;7.07;;
1134;SDS011;556;53.550;10.048;2022-07-06T02:28:23;8.40;;;7.83;;
1134;SDS011;556;53.550;10.048;2022-07-06T02:30:51;8.40;;;7.80;;
1134;SDS011;556;53.550;10.048;2022-07-06T02:33:18;9.17;;;8.40;;
1134;SDS011;556;53.550;10.048;2022-07-06T02:35:49;5.90;;;5.70;;
1134;SDS011;556;53.550;10.048;2022-07-06T02:38:17;7.37;;;6.70;;
1134;SDS011;556;53.550;10.048;2022-07-06T02:40:44;6.70;;;6.40;;
1134;SDS011;556;53.550;10.048;2022-07-06T02:43:13;5.93;;;5.73;;
1134;SDS011;556;53.550;10.048;2022-07-06T02:45:40;5.97;;;5.77;;
1134;SDS011;556;53.550;10.048;2022-07-06T02:48:09;6.13;;;5.73;;
1134;SDS011;556;53.550;10.048;2022-07-06T02:50:36;8.37;;;6.20;;
1134;SDS011;556;53.550;10.048;2022-07-06T02:53:04;6.83;;;6.43;;
1134;SDS011;556;53.550;10.048;2022-07-06T02:55:32;6.50;;;6.30;;
1134;SDS011;556;53.550;10.048;2022-07-06T02:58:00;6.30;;;5.97;;
1134;SDS011;556;53.550;10.048;2022-07-06T03:00:30;5.90;;;5.70;;
1134;SDS011;556;53.550;10.048;2022-07-06T03:02:57;5.60;;;5.50;;
1134;SDS011;556;53.550;10.048;2022-07-06T03:05:25;6.90;;;6.30;;
1134;SDS011;556;53.550;10.048;2022-07-06T03:07:53;5.80;;;5.60;;
1134;SDS011;556;53.550;10.048;2022-07-06T03:10:21;5.67;;;5.30;;
1134;SDS011;556;53.550;10.048;2022-07-06T03:12:49;5.50;;;5.30;;
1134;SDS011;556;53.550;10.048;2022-07-06T03:15:16;6.97;;;6.50;;
1134;SDS011;556;53.550;10.048;2022-07-06T03:17:47;5.07;;;4.97;;
1134;SDS011;556;53.550;10.048;2022-07-06T03:20:15;5.30;;;5.10;;
1134;SDS011;556;53.550;10.048;2022-07-06T03:22:43;5.70;;;5.33;;
1134;SDS011;556;53.550;10.048;2022-07-06T03:25:13;4.80;;;4.70;;
1134;SDS011;556;53.550;10.048;2022-07-06T03:27:40;5.33;;;5.13;;
1134;SDS011;556;53.550;10.048;2022-07-06T03:30:09;7.13;;;6.27;;
1134;SDS011;556;53.550;10.048;2022-07-06T03:32:36;5.40;;;5.10;;
1134;SDS011;556;53.550;10.048;2022-07-06T03:35:07;6.57;;;5.93;;
1134;SDS011;556;53.550;10.048;2022-07-06T03:37:35;7.77;;;6.73;;
1134;SDS011;556;53.550;10.048;2022-07-06T03:40:02;6.37;;;5.80;;
1134;SDS011;556;53.550;10.048;2022-07-06T03:42:30;5.87;;;5.50;;
1134;SDS011;556;53.550;10.048;2022-07-06T03:44:58;7.23;;;6.10;;
1134;SDS011;556;53.550;10.048;2022-07-06T03:47:26;5.23;;;4.93;;
1134;SDS011;556;53.550;10.048;2022-07-06T03:49:53;4.77;;;4.53;;
1134;SDS011;556;53.550;10.048;2022-07-06T03:52:22;4.57;;;4.20;;
1134;SDS011;556;53.550;10.048;2022-07-06T03:54:54;4.13;;;3.93;;
1134;SDS011;556;53.550;10.048;2022-07-06T03:57:26;4.07;;;3.97;;
1134;SDS011;556;53.550;10.048;2022-07-06T03:59:56;4.67;;;4.47;;
1134;SDS011;556;53.550;10.048;2022-07-06T04:02:24;3.47;;;3.37;;
1134;SDS011;556;53.550;10.048;2022-07-06T04:04:52;4.20;;;3.80;;
1134;SDS011;556;53.550;10.048;2022-07-06T04:07:21;3.90;;;3.60;;
1134;SDS011;556;53.550;10.048;2022-07-06T04:09:49;3.73;;;3.63;;
1134;SDS011;556;53.550;10.048;2022-07-06T04:12:16;4.10;;;4.00;;
1134;SDS011;556;53.550;10.048;2022-07-06T04:14:43;5.00;;;4.60;;
1134;SDS011;556;53.550;10.048;2022-07-06T04:17:10;11.83;;;4.60;;
1134;SDS011;556;53.550;10.048;2022-07-06T04:19:56;4.07;;;3.97;;
1134;SDS011;556;53.550;10.048;2022-07-06T04:22:24;4.73;;;4.53;;
1134;SDS011;556;53.550;10.048;2022-07-06T04:24:51;4.20;;;4.00;;
1134;SDS011;556;53.550;10.048;2022-07-06T04:27:18;4.17;;;3.87;;
1134;SDS011;556;53.550;10.048;2022-07-06T04:29:46;4.33;;;3.93;;
1134;SDS011;556;53.550;10.048;2022-07-06T04:32:13;3.77;;;3.53;;
1134;SDS011;556;53.550;10.048;2022-07-06T04:34:40;4.03;;;3.80;;
1134;SDS011;556;53.550;10.048;2022-07-06T04:37:07;3.67;;;3.57;;
1134;SDS011;556;53.550;10.048;2022-07-06T04:39:36;3.90;;;3.70;;
1134;SDS011;556;53.550;10.048;2022-07-06T04:42:04;3.40;;;3.20;;
1134;SDS011;556;53.550;10.048;2022-07-06T04:44:31;3.43;;;3.27;;
1134;SDS011;556;53.550;10.048;2022-07-06T04:46:58;10.93;;;4.33;;
1134;SDS011;556;53.550;10.048;2022-07-06T04:49:26;8.20;;;3.13;;
1134;SDS011;556;53.550;10.048;2022-07-06T04:51:53;4.27;;;3.20;;
1134;SDS011;556;53.550;10.048;2022-07-06T04:54:21;4.53;;;4.27;;
1134;SDS011;556;53.550;10.048;2022-07-06T04:56:49;3.93;;;3.63;;
1134;SDS011;556;53.550;10.048;2022-07-06T04:59:17;3.00;;;2.90;;
1134;SDS011;556;53.550;10.048;2022-07-06T05:01:45;3.30;;;3.00;;
1134;SDS011;556;53.550;10.048;2022-07-06T05:04:12;3.43;;;2.80;;
1134;SDS011;556;53.550;10.048;2022-07-06T05:06:39;2.50;;;2.40;;
1134;SDS011;556;53.550;10.048;2022-07-06T05:09:06;3.13;;;3.00;;
1134;SDS011;556;53.550;10.048;2022-07-06T05:11:34;3.77;;;3.47;;
1134;SDS011;556;53.550;10.048;2022-07-06T05:14:04;2.93;;;2.83;;
1134;SDS011;556;53.550;10.048;2022-07-06T05:16:32;3.00;;;2.80;;
1134;SDS011;556;53.550;10.048;2022-07-06T05:18:59;3.50;;;3.30;;
1134;SDS011;556;53.550;10.048;2022-07-06T05:21:27;2.73;;;2.63;;
1134;SDS011;556;53.550;10.048;2022-07-06T05:23:55;3.90;;;2.77;;
1134;SDS011;556;53.550;10.048;2022-07-06T05:26:25;3.33;;;3.10;;
1134;SDS011;556;53.550;10.048;2022-07-06T05:28:52;6.50;;;3.50;;
1134;SDS011;556;53.550;10.048;2022-07-06T05:31:22;3.63;;;3.43;;
1134;SDS011;556;53.550;10.048;2022-07-06T05:33:50;4.53;;;2.87;;
1134;SDS011;556;53.550;10.048;2022-07-06T05:36:17;3.03;;;2.83;;
1134;SDS011;556;53.550;10.048;2022-07-06T05:38:45;3.03;;;2.70;;
1134;SDS011;556;53.550;10.048;2022-07-06T05:41:12;3.03;;;2.93;;
1134;SDS011;556;53.550;10.048;2022-07-06T05:43:39;4.03;;;3.40;;
1134;SDS011;556;53.550;10.048;2022-07-06T05:46:07;3.10;;;3.00;;
1134;SDS011;556;53.550;10.048;2022-07-06T05:48:39;3.77;;;3.47;;
1134;SDS011;556;53.550;10.048;2022-07-06T05:51:24;3.20;;;2.93;;
1134;SDS011;556;53.550;10.048;2022-07-06T05:53:53;3.10;;;3.00;;
1134;SDS011;556;53.550;10.048;2022-07-06T05:56:21;2.80;;;2.70;;
1134;SDS011;556;53.550;10.048;2022-07-06T05:58:48;3.50;;;3.30;;
1134;SDS011;556;53.550;10.048;2022-07-06T06:01:16;4.00;;;3.40;;
1134;SDS011;556;53.550;10.048;2022-07-06T06:03:51;3.13;;;2.90;;
1134;SDS011;556;53.550;10.048;2022-07-06T06:06:19;3.47;;;3.10;;
1134;SDS011;556;53.550;10.048;2022-07-06T06:08:46;3.50;;;3.27;;
1134;SDS011;556;53.550;10.048;2022-07-06T06:11:14;3.87;;;3.73;;
1134;SDS011;556;53.550;10.048;2022-07-06T06:13:41;6.30;;;3.27;;
1134;SDS011;556;53.550;10.048;2022-07-06T06:16:08;3.27;;;3.07;;
1134;SDS011;556;53.550;10.048;2022-07-06T06:18:36;3.57;;;3.37;;
1134;SDS011;556;53.550;10.048;2022-07-06T06:21:05;3.63;;;3.30;;
1134;SDS011;556;53.550;10.048;2022-07-06T06:23:33;3.37;;;3.27;;
1134;SDS011;556;53.550;10.048;2022-07-06T06:26:01;3.50;;;3.30;;
1134;SDS011;556;53.550;10.048;2022-07-06T06:28:30;4.17;;;3.23;;
1134;SDS011;556;53.550;10.048;2022-07-06T06:30:57;3.27;;;3.17;;
1134;SDS011;556;53.550;10.048;2022-07-06T06:33:24;2.83;;;2.73;;
1134;SDS011;556;53.550;10.048;2022-07-06T06:35:52;3.63;;;3.10;;
1134;SDS011;556;53.550;10.048;2022-07-06T06:38:22;2.97;;;2.87;;
1134;SDS011;556;53.550;10.048;2022-07-06T06:40:51;3.20;;;3.10;;
1134;SDS011;556;53.550;10.048;2022-07-06T06:43:19;3.63;;;3.43;;
1134;SDS011;556;53.550;10.048;2022-07-06T06:46:09;3.10;;;3.00;;
1134;SDS011;556;53.550;10.048;2022-07-06T06:48:36;5.60;;;3.60;;
1134;SDS011;556;53.550;10.048;2022-07-06T06:51:03;2.80;;;2.70;;
1134;SDS011;556;53.550;10.048;2022-07-06T06:53:32;4.77;;;3.60;;
1134;SDS011;556;53.550;10.048;2022-07-06T06:55:59;3.97;;;3.63;;
1134;SDS011;556;53.550;10.048;2022-07-06T06:58:26;3.60;;;3.50;;
1134;SDS011;556;53.550;10.048;2022-07-06T07:00:53;4.40;;;4.10;;
1134;SDS011;556;53.550;10.048;2022-07-06T07:03:21;4.00;;;3.70;;
1134;SDS011;556;53.550;10.048;2022-07-06T07:05:48;3.43;;;3.33;;
1134;SDS011;556;53.550;10.048;2022-07-06T07:08:15;5.00;;;4.60;;
1134;SDS011;556;53.550;10.048;2022-07-06T07:10:43;4.23;;;3.97;;
1134;SDS011;556;53.550;10.048;2022-07-06T07:13:10;4.70;;;4.50;;
1134;SDS011;556;53.550;10.048;2022-07-06T07:15:37;4.70;;;4.50;;
1134;SDS011;556;53.550;10.048;2022-07-06T07:18:04;4.50;;;4.30;;
1134;SDS011;556;53.550;10.048;2022-07-06T07:20:31;4.90;;;4.60;;
1134;SDS011;556;53.550;10.048;2022-07-06T07:22:59;4.60;;;4.40;;
1134;SDS011;556;53.550;10.048;2022-07-06T07:25:26;5.43;;;5.23;;
1134;SDS011;556;53.550;10.048;2022-07-06T07:27:55;4.50;;;4.40;;
1134;SDS011;556;53.550;10.048;2022-07-06T07:30:22;5.87;;;4.40;;
1134;SDS011;556;53.550;10.048;2022-07-06T07:32:49;4.50;;;4.27;;
1134;SDS011;556;53.550;10.048;2022-07-06T07:35:16;5.40;;;5.30;;
1134;SDS011;556;53.550;10.048;2022-07-06T07:37:43;6.40;;;5.67;;
1134;SDS011;556;53.550;10.048;2022-07-06T07:40:11;6.13;;;5.73;;
1134;SDS011;556;53.550;10.048;2022-07-06T07:42:38;9.90;;;5.70;;
1134;SDS011;556;53.550;10.048;2022-07-06T07:45:07;6.03;;;5.37;;
1134;SDS011;556;53.550;10.048;2022-07-06T07:47:36;6.27;;;5.97;;
1134;SDS011;556;53.550;10.048;2022-07-06T07:50:03;5.37;;;5.20;;
1134;SDS011;556;53.550;10.048;2022-07-06T07:52:31;6.30;;;5.90;;
1134;SDS011;556;53.550;10.048;2022-07-06T07:54:59;5.93;;;5.70;;
1134;SDS011;556;53.550;10.048;2022-07-06T07:57:26;4.97;;;4.87;;
1134;SDS011;556;53.550;10.048;2022-07-06T07:59:53;6.83;;;6.07;;
1134;SDS011;556;53.550;10.048;2022-07-06T08:02:21;6.40;;;6.00;;
1134;SDS011;556;53.550;10.048;2022-07-06T08:04:48;6.50;;;6.30;;
1134;SDS011;556;53.550;10.048;2022-07-06T08:07:15;6.27;;;5.93;;
1134;SDS011;556;53.550;10.048;2022-07-06T08:09:42;5.73;;;5.63;;
1134;SDS011;556;53.550;10.048;2022-07-06T08:12:10;6.20;;;5.60;;
1134;SDS011;556;53.550;10.048;2022-07-06T08:14:39;5.20;;;5.10;;
1134;SDS011;556;53.550;10.048;2022-07-06T08:17:06;5.17;;;5.00;;
1134;SDS011;556;53.550;10.048;2022-07-06T08:19:35;6.30;;;5.80;;
1134;SDS011;556;53.550;10.048;2022-07-06T08:22:02;6.40;;;6.20;;
1134;SDS011;556;53.550;10.048;2022-07-06T08:24:32;5.40;;;5.30;;
1134;SDS011;556;53.550;10.048;2022-07-06T08:27:00;5.07;;;4.97;;
1134;SDS011;556;53.550;10.048;2022-07-06T08:29:28;6.40;;;6.00;;
1134;SDS011;556;53.550;10.048;2022-07-06T08:31:55;6.50;;;6.30;;
1134;SDS011;556;53.550;10.048;2022-07-06T08:34:23;6.03;;;5.83;;
1134;SDS011;556;53.550;10.048;2022-07-06T08:36:51;6.20;;;6.00;;
1134;SDS011;556;53.550;10.048;2022-07-06T08:39:18;6.27;;;6.07;;
1134;SDS011;556;53.550;10.048;2022-07-06T08:41:46;6.23;;;6.03;;
1134;SDS011;556;53.550;10.048;2022-07-06T08:44:16;6.73;;;6.27;;
1134;SDS011;556;53.550;10.048;2022-07-06T08:46:45;6.77;;;6.47;;
1134;SDS011;556;53.550;10.048;2022-07-06T08:49:12;6.60;;;6.10;;
1134;SDS011;556;53.550;10.048;2022-07-06T08:51:42;6.90;;;6.70;;
1134;SDS011;556;53.550;10.048;2022-07-06T08:54:12;6.40;;;6.00;;
1134;SDS011;556;53.550;10.048;2022-07-06T08:56:41;6.10;;;5.90;;
1134;SDS011;556;53.550;10.048;2022-07-06T08:59:10;5.90;;;5.70;;
1134;SDS011;556;53.550;10.048;2022-07-06T09:01:38;6.20;;;5.90;;
1134;SDS011;556;53.550;10.048;2022-07-06T09:04:06;7.33;;;6.93;;
1134;SDS011;556;53.550;10.048;2022-07-06T09:06:33;6.40;;;6.20;;
1134;SDS011;556;53.550;10.048;2022-07-06T09:09:03;5.97;;;5.87;;
1134;SDS011;556;53.550;10.048;2022-07-06T09:11:33;6.50;;;6.30;;
1134;SDS011;556;53.550;10.048;2022-07-06T09:14:01;6.23;;;6.13;;
1134;SDS011;556;53.550;10.048;2022-07-06T09:16:29;7.23;;;6.60;;
1134;SDS011;556;53.550;10.048;2022-07-06T09:18:57;7.27;;;7.00;;
1134;SDS011;556;53.550;10.048;2022-07-06T09:21:25;6.80;;;6.60;;
1134;SDS011;556;53.550;10.048;2022-07-06T09:23:55;7.37;;;7.17;;
1134;SDS011;556;53.550;10.048;2022-07-06T09:26:23;7.10;;;6.90;;
1134;SDS011;556;53.550;10.048;2022-07-06T09:28:54;7.00;;;6.80;;
1134;SDS011;556;53.550;10.048;2022-07-06T09:31:22;7.73;;;7.43;;
1134;SDS011;556;53.550;10.048;2022-07-06T09:33:53;8.60;;;8.20;;
1134;SDS011;556;53.550;10.048;2022-07-06T09:39:20;8.07;;;7.77;;
1134;SDS011;556;53.550;10.048;2022-07-06T09:41:49;8.37;;;7.87;;
1134;SDS011;556;53.550;10.048;2022-07-06T09:44:19;7.50;;;7.20;;
1134;SDS011;556;53.550;10.048;2022-07-06T09:46:47;7.73;;;7.53;;
1134;SDS011;556;53.550;10.048;2022-07-06T09:49:18;7.70;;;7.50;;
1134;SDS011;556;53.550;10.048;2022-07-06T09:51:46;8.37;;;8.17;;
1134;SDS011;556;53.550;10.048;2022-07-06T09:54:14;8.00;;;7.80;;
1134;SDS011;556;53.550;10.048;2022-07-06T09:56:44;8.37;;;8.07;;
1134;SDS011;556;53.550;10.048;2022-07-06T09:59:16;8.93;;;8.40;;
1134;SDS011;556;53.550;10.048;2022-07-06T10:01:45;9.80;;;9.20;;
1134;SDS011;556;53.550;10.048;2022-07-06T10:04:13;9.20;;;8.90;;
1134;SDS011;556;53.550;10.048;2022-07-06T10:06:44;9.33;;;9.03;;
1134;SDS011;556;53.550;10.048;2022-07-06T10:09:11;11.07;;;10.13;;
1134;SDS011;556;53.550;10.048;2022-07-06T10:11:42;9.63;;;9.33;;
1134;SDS011;556;53.550;10.048;2022-07-06T10:14:12;9.47;;;9.20;;
1134;SDS011;556;53.550;10.048;2022-07-06T10:16:41;10.37;;;10.07;;
1134;SDS011;556;53.550;10.048;2022-07-06T10:19:10;9.90;;;9.40;;
1134;SDS011;556;53.550;10.048;2022-07-06T10:21:37;9.60;;;9.30;;
1134;SDS011;556;53.550;10.048;2022-07-06T10:24:06;11.23;;;10.83;;
1134;SDS011;556;53.550;10.048;2022-07-06T10:26:35;11.27;;;10.87;;
1134;SDS011;556;53.550;10.048;2022-07-06T10:29:03;11.00;;;10.70;;
1134;SDS011;556;53.550;10.048;2022-07-06T10:31:31;11.40;;;11.10;;
1134;SDS011;556;53.550;10.048;2022-07-06T10:34:00;11.27;;;10.97;;
1134;SDS011;556;53.550;10.048;2022-07-06T10:36:32;13.27;;;12.73;;
1134;SDS011;556;53.550;10.048;2022-07-06T10:39:03;12.30;;;11.90;;
1134;SDS011;556;53.550;10.048;2022-07-06T10:41:52;11.67;;;11.37;;
1134;SDS011;556;53.550;10.048;2022-07-06T10:44:20;12.10;;;11.80;;
1134;SDS011;556;53.550;10.048;2022-07-06T10:46:52;12.30;;;11.80;;
1134;SDS011;556;53.550;10.048;2022-07-06T10:49:20;12.83;;;12.43;;
1134;SDS011;556;53.550;10.048;2022-07-06T10:51:49;11.83;;;11.53;;
1134;SDS011;556;53.550;10.048;2022-07-06T10:54:17;12.40;;;11.60;;
1134;SDS011;556;53.550;10.048;2022-07-06T10:56:47;11.47;;;11.17;;
1134;SDS011;556;53.550;10.048;2022-07-06T10:59:16;11.40;;;10.80;;
1134;SDS011;556;53.550;10.048;2022-07-06T11:04:39;11.77;;;11.27;;
1134;SDS011;556;53.550;10.048;2022-07-06T11:07:27;12.03;;;11.33;;
1134;SDS011;556;53.550;10.048;2022-07-06T11:09:54;11.20;;;10.67;;
1134;SDS011;556;53.550;10.048;2022-07-06T11:12:24;11.57;;;11.10;;
1134;SDS011;556;53.550;10.048;2022-07-06T11:14:52;9.53;;;9.33;;
1134;SDS011;556;53.550;10.048;2022-07-06T11:17:20;10.30;;;9.90;;
1134;SDS011;556;53.550;10.048;2022-07-06T11:19:48;9.03;;;8.73;;
1134;SDS011;556;53.550;10.048;2022-07-06T11:22:16;10.93;;;10.33;;
1134;SDS011;556;53.550;10.048;2022-07-06T11:24:46;10.20;;;9.60;;
1134;SDS011;556;53.550;10.048;2022-07-06T11:27:16;8.80;;;8.60;;
1134;SDS011;556;53.550;10.048;2022-07-06T11:29:43;9.30;;;8.83;;
1134;SDS011;556;53.550;10.048;2022-07-06T11:32:11;10.37;;;9.73;;
1134;SDS011;556;53.550;10.048;2022-07-06T11:34:41;9.00;;;8.80;;
1134;SDS011;556;53.550;10.048;2022-07-06T11:37:09;9.17;;;8.97;;
1134;SDS011;556;53.550;10.048;2022-07-06T11:39:38;8.57;;;8.27;;
1134;SDS011;556;53.550;10.048;2022-07-06T11:42:08;9.97;;;8.83;;
1134;SDS011;556;53.550;10.048;2022-07-06T11:44:36;9.53;;;9.13;;
1134;SDS011;556;53.550;10.048;2022-07-06T11:47:05;9.50;;;9.10;;
1134;SDS011;556;53.550;10.048;2022-07-06T11:49:33;10.80;;;10.03;;
1134;SDS011;556;53.550;10.048;2022-07-06T11:52:04;9.57;;;9.27;;
1134;SDS011;556;53.550;10.048;2022-07-06T11:54:32;10.00;;;9.70;;
1134;SDS011;556;53.550;10.048;2022-07-06T11:57:00;9.77;;;9.40;;
1134;SDS011;556;53.550;10.048;2022-07-06T11:59:31;10.87;;;9.63;;
1134;SDS011;556;53.550;10.048;2022-07-06T12:02:00;10.20;;;9.80;;
1134;SDS011;556;53.550;10.048;2022-07-06T12:04:28;9.60;;;9.30;;
1134;SDS011;556;53.550;10.048;2022-07-06T12:06:55;9.63;;;9.33;;
1134;SDS011;556;53.550;10.048;2022-07-06T12:09:25;9.60;;;9.10;;
1134;SDS011;556;53.550;10.048;2022-07-06T12:11:55;10.03;;;9.63;;
1134;SDS011;556;53.550;10.048;2022-07-06T12:14:22;10.47;;;10.07;;
1134;SDS011;556;53.550;10.048;2022-07-06T12:16:50;10.27;;;9.97;;
1134;SDS011;556;53.550;10.048;2022-07-06T12:19:18;10.50;;;10.00;;
1134;SDS011;556;53.550;10.048;2022-07-06T12:21:48;10.60;;;10.10;;
1134;SDS011;556;53.550;10.048;2022-07-06T12:24:17;10.60;;;10.30;;
1134;SDS011;556;53.550;10.048;2022-07-06T12:26:45;10.43;;;9.83;;
1134;SDS011;556;53.550;10.048;2022-07-06T12:29:12;9.10;;;8.80;;
1134;SDS011;556;53.550;10.048;2022-07-06T12:31:40;10.13;;;9.83;;
1134;SDS011;556;53.550;10.048;2022-07-06T12:34:14;10.80;;;10.10;;
1134;SDS011;556;53.550;10.048;2022-07-06T12:36:42;10.20;;;9.90;;
1134;SDS011;556;53.550;10.048;2022-07-06T12:39:11;10.30;;;10.00;;
1134;SDS011;556;53.550;10.048;2022-07-06T12:41:43;10.40;;;10.10;;
1134;SDS011;556;53.550;10.048;2022-07-06T12:44:12;11.83;;;10.70;;
1134;SDS011;556;53.550;10.048;2022-07-06T12:46:40;10.77;;;10.47;;
1134;SDS011;556;53.550;10.048;2022-07-06T12:49:13;11.27;;;10.73;;
1134;SDS011;556;53.550;10.048;2022-07-06T12:51:48;11.03;;;10.70;;
1134;SDS011;556;53.550;10.048;2022-07-06T12:54:16;11.30;;;10.80;;
1134;SDS011;556;53.550;10.048;2022-07-06T12:57:00;11.30;;;10.90;;
1134;SDS011;556;53.550;10.048;2022-07-06T12:59:36;11.20;;;10.87;;
1134;SDS011;556;53.550;10.048;2022-07-06T13:02:04;11.10;;;10.80;;
1134;SDS011;556;53.550;10.048;2022-07-06T13:04:35;11.40;;;11.10;;
1134;SDS011;556;53.550;10.048;2022-07-06T13:07:03;14.73;;;13.90;;
1134;SDS011;556;53.550;10.048;2022-07-06T13:09:30;12.00;;;11.50;;
1134;SDS011;556;53.550;10.048;2022-07-06T13:11:58;12.00;;;11.70;;
1134;SDS011;556;53.550;10.048;2022-07-06T13:14:25;12.23;;;11.83;;
1134;SDS011;556;53.550;10.048;2022-07-06T13:16:52;12.13;;;11.83;;
1134;SDS011;556;53.550;10.048;2022-07-06T13:19:20;13.43;;;12.80;;
1134;SDS011;556;53.550;10.048;2022-07-06T13:21:49;12.63;;;12.23;;
1134;SDS011;556;53.550;10.048;2022-07-06T13:24:16;12.60;;;12.20;;
1134;SDS011;556;53.550;10.048;2022-07-06T13:26:43;13.43;;;12.83;;
1134;SDS011;556;53.550;10.048;2022-07-06T13:29:11;14.03;;;13.63;;
1134;SDS011;556;53.550;10.048;2022-07-06T13:31:39;12.83;;;12.43;;
1134;SDS011;556;53.550;10.048;2022-07-06T13:34:07;14.20;;;13.80;;
1134;SDS011;556;53.550;10.048;2022-07-06T13:36:35;13.17;;;12.43;;
1134;SDS011;556;53.550;10.048;2022-07-06T13:39:03;12.90;;;12.50;;
1134;SDS011;556;53.550;10.048;2022-07-06T13:41:30;13.80;;;13.40;;
1134;SDS011;556;53.550;10.048;2022-07-06T13:43:58;13.60;;;13.10;;
1134;SDS011;556;53.550;10.048;2022-07-06T13:46:26;13.00;;;12.60;;
1134;SDS011;556;53.550;10.048;2022-07-06T13:48:53;13.03;;;12.63;;
1134;SDS011;556;53.550;10.048;2022-07-06T13:51:22;13.33;;;12.87;;
1134;SDS011;556;53.550;10.048;2022-07-06T13:53:49;14.20;;;13.80;;
1134;SDS011;556;53.550;10.048;2022-07-06T13:56:19;13.40;;;13.00;;
1134;SDS011;556;53.550;10.048;2022-07-06T13:58:46;13.03;;;12.67;;
1134;SDS011;556;53.550;10.048;2022-07-06T14:01:13;12.60;;;12.10;;
1134;SDS011;556;53.550;10.048;2022-07-06T14:03:40;13.10;;;12.60;;
1134;SDS011;556;53.550;10.048;2022-07-06T14:06:09;13.50;;;13.10;;
1134;SDS011;556;53.550;10.048;2022-07-06T14:08:37;13.83;;;13.43;;
1134;SDS011;556;53.550;10.048;2022-07-06T14:11:05;12.40;;;12.00;;
1134;SDS011;556;53.550;10.048;2022-07-06T14:13:35;14.23;;;13.33;;
1134;SDS011;556;53.550;10.048;2022-07-06T14:16:04;12.80;;;12.30;;
1134;SDS011;556;53.550;10.048;2022-07-06T14:18:31;14.00;;;13.60;;
1134;SDS011;556;53.550;10.048;2022-07-06T14:20:59;12.00;;;11.50;;
1134;SDS011;556;53.550;10.048;2022-07-06T14:23:26;11.60;;;11.30;;
1134;SDS011;556;53.550;10.048;2022-07-06T14:25:54;12.60;;;12.20;;
1134;SDS011;556;53.550;10.048;2022-07-06T14:28:22;12.43;;;12.13;;
1134;SDS011;556;53.550;10.048;2022-07-06T14:30:51;12.70;;;12.30;;
1134;SDS011;556;53.550;10.048;2022-07-06T14:33:18;12.00;;;11.67;;
1134;SDS011;556;53.550;10.048;2022-07-06T14:35:46;12.57;;;12.17;;
1134;SDS011;556;53.550;10.048;2022-07-06T14:38:16;12.67;;;12.37;;
1134;SDS011;556;53.550;10.048;2022-07-06T14:40:44;12.73;;;12.33;;
1134;SDS011;556;53.550;10.048;2022-07-06T14:43:13;14.30;;;13.73;;
1134;SDS011;556;53.550;10.048;2022-07-06T14:45:40;12.90;;;12.40;;
1134;SDS011;556;53.550;10.048;2022-07-06T14:48:10;13.87;;;12.70;;
1134;SDS011;556;53.550;10.048;2022-07-06T14:50:38;12.63;;;12.23;;
1134;SDS011;556;53.550;10.048;2022-07-06T14:53:05;13.20;;;12.80;;
1134;SDS011;556;53.550;10.048;2022-07-06T14:55:32;13.50;;;12.80;;
1134;SDS011;556;53.550;10.048;2022-07-06T14:58:00;12.67;;;12.10;;
1134;SDS011;556;53.550;10.048;2022-07-06T15:00:27;13.27;;;12.87;;
1134;SDS011;556;53.550;10.048;2022-07-06T15:02:54;12.00;;;11.70;;
1134;SDS011;556;53.550;10.048;2022-07-06T15:05:22;14.50;;;13.73;;
1134;SDS011;556;53.550;10.048;2022-07-06T15:07:50;13.83;;;13.40;;
1134;SDS011;556;53.550;10.048;2022-07-06T15:10:17;13.73;;;13.27;;
1134;SDS011;556;53.550;10.048;2022-07-06T15:12:44;12.97;;;12.57;;
1134;SDS011;556;53.550;10.048;2022-07-06T15:15:12;12.30;;;12.00;;
1134;SDS011;556;53.550;10.048;2022-07-06T15:17:39;12.80;;;12.40;;
1134;SDS011;556;53.550;10.048;2022-07-06T15:20:07;12.43;;;12.03;;
1134;SDS011;556;53.550;10.048;2022-07-06T15:22:37;12.80;;;12.10;;